METAR Data
IDs: Format: Raw Decoded Include TAF

Data at: 1414 UTC 16 Aug 2022

METAR for:KJCA (Jefferson/Jackson Cn, GA, US)
Text:KJCA 161355Z AUTO 05008KT 10SM OVC012 23/21 A2995 RMK AO2 T02330212
Temperature: 23.3°C ( 74°F)
Dewpoint: 21.2°C ( 70°F) [RH = 88%]
Pressure (altimeter):29.95 inches Hg (1014.3 mb)
Winds:from the NE (50 degrees) at 9 MPH (8 knots; 4.1 m/s)
Visibility:10 or more sm (16+ km)
Ceiling:1200 feet AGL
Clouds: overcast cloud deck at 1200 feet AGL
QC Flag:automated observation with no human augmentation